Time;durP1;ratioP1;P1;durP2;ratioP2;P2;SDS_P1;SDS_P2;PMS_P1;PMS_P2;Temp;Humidity;BMP_temperature;BMP_pressure;BME280_temperature;BME280_humidity;BME280_pressure;Samples;Min_cycle;Max_cycle;Signal;HPM_P1;HPM_P2
2023/07/13 05:33:07;;;;;;;9.90;4.70;;;25.70;99.90;;;;;;5086499;28;20040;-73
2023/07/13 05:36:10;;;;;;;13.38;5.53;;;25.30;99.90;;;;;;5090115;28;20537;-72
2023/07/13 05:39:15;;;;;;;13.18;4.93;;;25.10;99.90;;;;;;5089893;28;20059;-73
2023/07/13 05:42:19;;;;;;;12.32;4.93;;;25.20;99.90;;;;;;5086546;28;20043;-74
2023/07/13 05:45:23;;;;;;;12.50;4.28;;;24.70;99.90;;;;;;5069840;28;20036;-73
2023/07/13 05:48:27;;;;;;;11.05;5.03;;;24.60;99.90;;;;;;5070048;28;20042;-74
2023/07/13 05:51:31;;;;;;;13.98;4.95;;;24.60;99.90;;;;;;5070495;28;20047;-74
2023/07/13 05:54:35;;;;;;;10.05;4.60;;;24.70;99.90;;;;;;5072948;28;20040;-72
2023/07/13 05:57:39;;;;;;;12.93;5.00;;;25.00;99.90;;;;;;5073466;28;20048;-74
2023/07/13 06:00:45;;;;;;;15.18;4.68;;;26.60;99.90;;;;;;5074391;28;20044;-75
2023/07/13 06:03:50;;;;;;;12.57;5.22;;;27.60;99.90;;;;;;5073240;28;20482;-74
2023/07/13 06:06:54;;;;;;;12.55;5.00;;;27.60;99.90;;;;;;5073869;28;20493;-75
2023/07/13 06:09:59;;;;;;;11.75;4.93;;;28.30;99.90;;;;;;5074494;28;20055;-75
2023/07/13 06:13:03;;;;;;;11.45;5.28;;;27.30;99.90;;;;;;5073336;28;20056;-74
2023/07/13 06:16:08;;;;;;;13.73;4.80;;;26.70;99.90;;;;;;5081156;28;20043;-73
2023/07/13 06:19:13;;;;;;;13.38;5.13;;;26.40;99.90;;;;;;5078257;28;20047;-74
2023/07/13 06:22:17;;;;;;;12.85;4.88;;;26.50;99.90;;;;;;5091485;28;20063;-72
2023/07/13 06:25:21;;;;;;;14.45;4.82;;;26.60;99.90;;;;;;5093457;28;20055;-73
2023/07/13 06:28:25;;;;;;;14.30;4.47;;;28.00;99.90;;;;;;5093307;28;20035;-73
2023/07/13 06:31:29;;;;;;;10.90;4.18;;;28.40;99.90;;;;;;5058722;28;20051;-73
2023/07/13 06:34:34;;;;;;;10.23;4.53;;;28.10;99.90;;;;;;5085136;28;20094;-72
2023/07/13 06:37:38;;;;;;;8.52;4.28;;;28.50;99.90;;;;;;5089760;28;20055;-73
2023/07/13 06:40:42;;;;;;;12.15;4.43;;;29.10;99.90;;;;;;5083686;28;20521;-74
2023/07/13 06:43:46;;;;;;;13.95;4.20;;;29.80;99.90;;;;;;5090693;28;20054;-72
2023/07/13 06:46:50;;;;;;;10.70;3.95;;;30.50;99.90;;;;;;5081962;28;20398;-72
2023/07/13 06:49:54;;;;;;;9.40;4.07;;;30.50;99.90;;;;;;5085034;28;20054;-73
2023/07/13 06:52:59;;;;;;;22.90;4.47;;;30.10;99.90;;;;;;5078513;28;20051;-75
2023/07/13 06:56:03;;;;;;;9.98;4.80;;;29.30;99.90;;;;;;5085836;28;20043;-73
2023/07/13 06:59:07;;;;;;;12.43;4.80;;;29.00;99.90;;;;;;5083881;28;20378;-74
2023/07/13 07:02:11;;;;;;;9.25;5.18;;;28.40;99.90;;;;;;5081523;28;20031;-72
2023/07/13 07:05:15;;;;;;;11.77;5.18;;;27.70;99.90;;;;;;5080809;28;20043;-71
2023/07/13 07:08:19;;;;;;;14.25;4.78;;;27.60;99.90;;;;;;5074284;28;20742;-76
2023/07/13 07:11:25;;;;;;;11.35;4.95;;;27.30;99.90;;;;;;5075435;28;20390;-74
2023/07/13 07:14:30;;;;;;;16.95;5.32;;;27.70;99.90;;;;;;5075361;28;20051;-73
2023/07/13 07:17:34;;;;;;;15.90;5.20;;;28.90;99.90;;;;;;5091170;28;20055;-74
2023/07/13 07:20:39;;;;;;;12.32;4.97;;;28.50;99.90;;;;;;5078551;28;20043;-75
2023/07/13 07:23:43;;;;;;;9.55;4.60;;;28.70;99.90;;;;;;5084181;28;20039;-74
2023/07/13 07:26:47;;;;;;;11.48;4.70;;;28.00;99.90;;;;;;5079114;28;20043;-74
2023/07/13 07:29:51;;;;;;;11.95;4.60;;;28.70;99.90;;;;;;5072160;28;20498;-73
2023/07/13 07:32:55;;;;;;;12.45;5.55;;;30.30;99.90;;;;;;5075177;28;20046;-74
2023/07/13 07:36:01;;;;;;;15.77;4.25;;;30.70;99.90;;;;;;5091065;28;20043;-76
2023/07/13 07:39:06;;;;;;;11.45;4.65;;;31.20;99.90;;;;;;5080356;28;20036;-73
2023/07/13 07:42:10;;;;;;;11.25;4.30;;;30.80;99.90;;;;;;5077835;28;20047;-74
2023/07/13 07:45:14;;;;;;;9.13;4.28;;;30.80;99.90;;;;;;5058297;28;20058;-75
2023/07/13 07:48:18;;;;;;;17.73;5.00;;;31.10;99.90;;;;;;5080062;28;20051;-77
2023/07/13 07:51:22;;;;;;;13.13;4.50;;;31.60;99.90;;;;;;5087118;28;20039;-75
2023/07/13 07:54:26;;;;;;;11.73;4.82;;;31.50;99.90;;;;;;5091881;28;20517;-73
2023/07/13 07:57:30;;;;;;;11.38;4.50;;;31.60;99.90;;;;;;5092029;28;20051;-74
2023/07/13 08:00:35;;;;;;;13.50;4.53;;;32.40;99.40;;;;;;5074442;28;20506;-75
2023/07/13 08:03:39;;;;;;;12.50;4.22;;;32.50;99.30;;;;;;5090342;28;20379;-75
2023/07/13 08:06:44;;;;;;;16.30;4.97;;;31.80;99.60;;;;;;5078736;28;20052;-76
2023/07/13 08:09:52;;;;;;;9.57;4.80;;;30.60;99.90;;;;;;5072352;28;20066;-74
2023/07/13 08:12:56;;;;;;;9.15;4.57;;;30.30;99.90;;;;;;5070999;28;20655;-73
2023/07/13 08:16:00;;;;;;;10.82;4.72;;;30.60;99.90;;;;;;5075537;28;20498;-73
2023/07/13 08:19:04;;;;;;;13.88;4.43;;;31.00;99.90;;;;;;5074619;28;20043;-73
2023/07/13 08:22:08;;;;;;;8.90;4.30;;;31.80;99.90;;;;;;5079594;28;20040;-72
2023/07/13 08:25:12;;;;;;;11.65;4.88;;;32.40;99.60;;;;;;5083349;28;20043;-73
2023/07/13 08:28:16;;;;;;;14.05;4.45;;;32.80;99.10;;;;;;5078346;28;20052;-74
2023/07/13 08:31:20;;;;;;;10.27;4.55;;;32.00;99.10;;;;;;5075613;28;20115;-73
2023/07/13 08:34:24;;;;;;;12.63;5.30;;;31.00;99.90;;;;;;5083074;28;20051;-72
2023/07/13 08:37:28;;;;;;;25.02;5.25;;;30.70;99.90;;;;;;5084654;28;20051;-73
2023/07/13 08:40:34;;;;;;;20.35;5.20;;;30.10;99.90;;;;;;5075645;28;20399;-74
2023/07/13 08:43:38;;;;;;;15.82;5.28;;;30.60;99.90;;;;;;5089309;28;20039;-72
2023/07/13 08:46:45;;;;;;;11.20;4.63;;;30.90;99.90;;;;;;5089967;28;20399;-74
2023/07/13 08:49:49;;;;;;;14.65;5.55;;;31.20;99.90;;;;;;5079512;28;20057;-72
2023/07/13 08:52:56;;;;;;;11.35;4.75;;;31.00;99.90;;;;;;5081404;28;20417;-74
2023/07/13 08:56:01;;;;;;;10.80;4.82;;;31.60;99.50;;;;;;5085464;28;20050;-73
2023/07/13 08:59:17;;;;;;;13.07;5.18;;;31.50;99.90;;;;;;5071055;28;20036;-73
2023/07/13 09:02:52;;;;;;;10.55;4.38;;;31.60;99.90;;;;;;5082740;28;20481;-72
2023/07/13 09:05:59;;;;;;;16.40;5.57;;;31.20;99.90;;;;;;5089500;28;20035;-72
2023/07/13 09:09:16;;;;;;;17.40;5.55;;;30.10;99.90;;;;;;5089123;28;20047;-73
2023/07/13 09:12:38;;;;;;;13.60;5.53;;;30.20;99.90;;;;;;5089677;28;20681;-73
2023/07/13 09:15:47;;;;;;;20.40;5.22;;;30.30;99.90;;;;;;5089249;28;20047;-73
2023/07/13 09:18:56;;;;;;;15.40;4.45;;;30.70;99.90;;;;;;5094596;28;20039;-73
2023/07/13 09:22:03;;;;;;;13.15;5.22;;;30.70;99.90;;;;;;5089896;28;20039;-72
2023/07/13 09:25:21;;;;;;;25.30;5.57;;;30.20;99.90;;;;;;5090320;28;20418;-72
2023/07/13 09:28:34;;;;;;;16.10;6.03;;;29.40;99.90;;;;;;5088535;28;20050;-72
2023/07/13 09:31:50;;;;;;;14.50;5.50;;;28.90;99.90;;;;;;5093217;28;20047;-72
2023/07/13 09:34:55;;;;;;;24.85;6.25;;;28.80;99.90;;;;;;5095043;28;20673;-72
2023/07/13 09:38:21;;;;;;;15.68;4.70;;;28.90;99.90;;;;;;5094857;28;20378;-72
2023/07/13 09:41:47;;;;;;;9.82;5.28;;;29.20;99.90;;;;;;5093374;28;20040;-72
2023/07/13 09:44:53;;;;;;;10.38;4.93;;;29.40;99.90;;;;;;5094590;28;20047;-73
2023/07/13 09:48:11;;;;;;;24.45;5.57;;;29.30;99.90;;;;;;5081664;28;20486;-73
2023/07/13 09:51:15;;;;;;;21.23;6.03;;;29.00;99.90;;;;;;5093813;28;20047;-72
2023/07/13 09:54:24;;;;;;;15.13;5.85;;;28.80;99.90;;;;;;5087166;28;20502;-72
2023/07/13 09:57:28;;;;;;;18.88;6.10;;;28.60;99.90;;;;;;5086989;28;20379;-72
2023/07/13 10:00:32;;;;;;;17.17;5.80;;;28.80;99.90;;;;;;5086785;28;20039;-72
2023/07/13 10:03:42;;;;;;;11.15;4.78;;;29.40;99.90;;;;;;5090914;28;20055;-73
2023/07/13 10:06:47;;;;;;;17.77;5.55;;;29.70;99.90;;;;;;5090680;28;20039;-73
2023/07/13 10:09:55;;;;;;;15.73;5.93;;;29.90;99.90;;;;;;5064169;28;20601;-73
2023/07/13 10:13:00;;;;;;;17.67;5.57;;;30.10;99.90;;;;;;5089858;28;20500;-74
2023/07/13 10:16:06;;;;;;;16.45;5.70;;;30.40;99.90;;;;;;5083686;28;20044;-73
2023/07/13 10:19:32;;;;;;;17.17;5.70;;;30.70;99.90;;;;;;5078723;28;20399;-73
2023/07/13 10:22:54;;;;;;;17.45;5.93;;;31.10;99.90;;;;;;5089610;28;20035;-75
2023/07/13 10:26:01;;;;;;;14.68;5.65;;;31.10;99.90;;;;;;5093377;28;20497;-73
2023/07/13 10:29:12;;;;;;;17.48;5.35;;;31.20;99.90;;;;;;5081165;28;20059;-75
2023/07/13 10:32:18;;;;;;;18.00;5.43;;;31.70;99.90;;;;;;5090948;28;20051;-72
2023/07/13 10:35:23;;;;;;;12.77;5.22;;;32.40;99.90;;;;;;5072029;28;20063;-72
2023/07/13 10:38:28;;;;;;;14.70;5.03;;;33.30;99.90;;;;;;5091829;28;20533;-74
2023/07/13 10:41:41;;;;;;;12.05;4.80;;;34.00;99.90;;;;;;5074159;28;20047;-75
2023/07/13 10:44:45;;;;;;;19.90;6.15;;;34.80;99.80;;;;;;5088753;28;20474;-73
2023/07/13 10:47:53;;;;;;;16.00;5.32;;;34.10;99.70;;;;;;5078961;28;20034;-73
2023/07/13 10:51:00;;;;;;;16.80;5.60;;;34.00;99.80;;;;;;5084593;28;20047;-74
2023/07/13 10:54:18;;;;;;;21.30;5.82;;;33.40;99.90;;;;;;5091127;28;20489;-74
2023/07/13 10:57:22;;;;;;;24.98;6.43;;;32.90;99.90;;;;;;5079403;28;20636;-75
2023/07/13 11:00:27;;;;;;;14.48;5.38;;;32.50;99.90;;;;;;5085544;28;20055;-75
2023/07/13 11:03:34;;;;;;;23.17;5.72;;;32.30;99.90;;;;;;5088700;28;20051;-74
2023/07/13 11:06:46;;;;;;;17.85;5.93;;;32.20;99.90;;;;;;5084028;28;20039;-72
2023/07/13 11:09:57;;;;;;;20.92;7.03;;;32.40;99.90;;;;;;5080775;28;20039;-73
2023/07/13 11:13:01;;;;;;;15.73;6.75;;;32.70;99.90;;;;;;5088207;28;20375;-73
2023/07/13 11:16:17;;;;;;;14.10;5.40;;;33.80;99.90;;;;;;5074355;28;20047;-73
2023/07/13 11:19:21;;;;;;;16.00;5.82;;;35.50;99.90;;;;;;5087178;28;20059;-74
2023/07/13 11:22:44;;;;;;;16.88;5.65;;;37.20;97.90;;;;;;5076114;28;20039;-74
2023/07/13 11:25:48;;;;;;;20.80;5.30;;;37.70;97.10;;;;;;5088650;28;20066;-75
2023/07/13 11:28:52;;;;;;;16.85;5.25;;;38.40;95.80;;;;;;5082318;28;20075;-73
2023/07/13 11:31:58;;;;;;;20.02;5.53;;;37.00;96.70;;;;;;5080380;28;20051;-75
2023/07/13 11:35:03;;;;;;;17.05;5.30;;;37.60;97.10;;;;;;5089005;28;20055;-75
2023/07/13 11:38:34;;;;;;;20.88;6.32;;;36.70;97.00;;;;;;5066716;28;20056;-73
2023/07/13 11:41:53;;;;;;;17.10;5.10;;;33.30;99.90;;;;;;5061519;28;20040;-75
2023/07/13 11:44:56;;;;;;;14.35;5.50;;;35.60;98.10;;;;;;5088589;28;20051;-73
2023/07/13 11:48:01;;;;;;;22.73;6.07;;;35.70;98.80;;;;;;5078754;28;20055;-74
2023/07/13 12:11:58;;;;;;;25.60;6.90;;;33.60;99.90;;;;;;5071452;28;20039;-74
2023/07/13 12:15:06;;;;;;;26.38;6.47;;;33.00;99.90;;;;;;5089637;28;20043;-72
2023/07/13 12:18:16;;;;;;;29.83;7.30;;;32.30;99.90;;;;;;5075673;28;20072;-74
2023/07/13 12:21:30;;;;;;;21.75;6.85;;;32.80;99.90;;;;;;5087205;28;20040;-76
2023/07/13 12:24:36;;;;;;;23.05;6.78;;;32.30;99.90;;;;;;5089560;28;20516;-75
2023/07/13 12:27:40;;;;;;;27.27;7.05;;;31.80;99.90;;;;;;5088673;28;20485;-73
2023/07/13 12:30:48;;;;;;;24.25;6.65;;;31.80;99.90;;;;;;5082193;28;20048;-74
2023/07/13 12:34:01;;;;;;;26.73;6.88;;;32.30;99.90;;;;;;5073496;28;20059;-72
2023/07/13 12:37:11;;;;;;;24.52;7.32;;;32.90;99.90;;;;;;5078613;28;20046;-73
2023/07/13 12:40:22;;;;;;;19.63;6.35;;;33.00;99.90;;;;;;5083709;28;20047;-74
2023/07/13 12:43:27;;;;;;;21.02;6.50;;;33.30;99.90;;;;;;5089438;28;20039;-73
2023/07/13 12:46:31;;;;;;;25.95;6.47;;;34.10;99.90;;;;;;5088143;28;20043;-74
2023/07/13 12:49:41;;;;;;;18.67;6.50;;;33.60;99.90;;;;;;5086221;28;20047;-74
2023/07/13 12:52:51;;;;;;;22.88;6.50;;;32.80;99.90;;;;;;5076420;28;20059;-73
2023/07/13 12:55:59;;;;;;;20.35;7.25;;;32.60;99.90;;;;;;5079803;28;20043;-77
2023/07/13 12:59:05;;;;;;;20.55;6.45;;;32.20;99.90;;;;;;5089585;28;20051;-72
2023/07/13 13:02:50;;;;;;;25.88;7.07;;;32.20;99.90;;;;;;5078432;28;20383;-74
2023/07/13 13:06:18;;;;;;;17.52;6.90;;;32.60;99.90;;;;;;5086811;28;20476;-75
2023/07/13 13:09:23;;;;;;;26.25;6.78;;;32.80;99.90;;;;;;5082721;28;20040;-75
2023/07/13 13:12:28;;;;;;;22.38;7.65;;;32.40;99.90;;;;;;5083183;28;20055;-72
2023/07/13 13:15:32;;;;;;;27.02;7.07;;;32.30;99.90;;;;;;5084645;28;20383;-72
2023/07/13 13:18:37;;;;;;;29.63;6.28;;;32.50;99.90;;;;;;5075564;28;20049;-73
2023/07/13 13:21:43;;;;;;;29.08;7.80;;;32.30;99.90;;;;;;5083112;28;20047;-74
2023/07/13 13:24:47;;;;;;;23.92;7.13;;;31.50;99.90;;;;;;5075788;28;20051;-74
2023/07/13 13:27:52;;;;;;;26.90;7.53;;;31.00;99.90;;;;;;5082448;28;20064;-73
2023/07/13 13:30:56;;;;;;;23.08;7.30;;;31.30;99.90;;;;;;5084589;28;20055;-74
2023/07/13 13:34:07;;;;;;;36.83;7.57;;;31.40;99.90;;;;;;5073265;28;20055;-75
2023/07/13 13:37:20;;;;;;;27.70;7.10;;;31.00;99.90;;;;;;5080329;28;20494;-73
2023/07/13 13:40:26;;;;;;;20.75;6.80;;;30.50;99.90;;;;;;5074521;28;20043;-74
2023/07/13 13:43:31;;;;;;;32.28;8.15;;;30.40;99.90;;;;;;5083057;28;20043;-73
2023/07/13 13:46:36;;;;;;;27.77;7.25;;;30.70;99.90;;;;;;5081515;28;20058;-76
2023/07/13 13:49:40;;;;;;;21.80;6.78;;;30.60;99.90;;;;;;5070918;28;20415;-75
2023/07/13 13:52:45;;;;;;;32.45;7.10;;;30.30;99.90;;;;;;5081132;28;20114;-74
2023/07/13 13:55:52;;;;;;;26.75;7.50;;;30.80;99.90;;;;;;5082034;28;20052;-80
2023/07/13 13:58:56;;;;;;;25.50;7.35;;;30.90;99.90;;;;;;5072469;28;20058;-73
2023/07/13 14:02:00;;;;;;;28.92;8.02;;;30.70;99.90;;;;;;5083306;28;20039;-73
2023/07/13 14:05:10;;;;;;;22.00;7.47;;;31.00;99.90;;;;;;5057671;28;20403;-72
2023/07/13 14:08:20;;;;;;;26.67;7.30;;;31.00;99.90;;;;;;5064408;28;20035;-73
2023/07/13 14:11:24;;;;;;;22.38;6.45;;;31.30;99.90;;;;;;5074635;28;20051;-76
2023/07/13 14:14:29;;;;;;;23.75;7.05;;;30.90;99.90;;;;;;5082198;28;20052;-74
2023/07/13 14:17:33;;;;;;;27.25;7.15;;;30.90;99.90;;;;;;5084694;28;20122;-75
2023/07/13 14:20:38;;;;;;;29.08;7.30;;;31.00;99.90;;;;;;5083520;28;20043;-74
2023/07/13 14:23:44;;;;;;;27.83;6.78;;;31.70;99.90;;;;;;5076984;28;20043;-77
2023/07/13 14:26:48;;;;;;;22.45;7.13;;;31.90;99.90;;;;;;5075385;28;20059;-75
2023/07/13 14:29:55;;;;;;;24.35;7.82;;;31.80;99.90;;;;;;5080365;28;20039;-73
2023/07/13 14:33:00;;;;;;;25.85;7.43;;;31.40;99.90;;;;;;5086905;28;20059;-75
2023/07/13 14:36:21;;;;;;;22.83;7.43;;;30.90;99.90;;;;;;5095267;28;20051;-74
2023/07/13 14:39:26;;;;;;;25.08;7.65;;;30.70;99.90;;;;;;5093521;28;20043;-76
2023/07/13 14:42:30;;;;;;;30.13;7.28;;;30.80;99.90;;;;;;5090950;28;20043;-74
2023/07/13 14:45:40;;;;;;;27.33;7.65;;;31.00;99.90;;;;;;5062280;28;20119;-75
2023/07/13 14:48:44;;;;;;;21.15;6.75;;;31.60;99.90;;;;;;5074507;28;20119;-74
2023/07/13 14:51:48;;;;;;;19.08;6.82;;;31.50;99.90;;;;;;5078885;28;20047;-74
2023/07/13 14:54:53;;;;;;;27.77;7.15;;;31.20;99.90;;;;;;5082924;28;20047;-75
2023/07/13 14:57:57;;;;;;;26.95;7.10;;;31.10;99.90;;;;;;5093785;28;20043;-74
2023/07/13 15:01:02;;;;;;;26.25;7.90;;;31.10;99.90;;;;;;5093283;28;20039;-73
2023/07/13 15:04:06;;;;;;;33.30;8.13;;;31.50;99.90;;;;;;5090367;28;20261;-72
2023/07/13 15:07:12;;;;;;;27.88;7.85;;;31.50;99.90;;;;;;5086838;28;20039;-75
2023/07/13 15:10:16;;;;;;;29.15;7.75;;;31.80;99.90;;;;;;5075995;28;20067;-77
2023/07/13 15:13:23;;;;;;;23.20;7.55;;;31.60;99.90;;;;;;5089724;28;20403;-73
2023/07/13 15:16:27;;;;;;;26.83;7.85;;;31.50;99.90;;;;;;5093854;28;20047;-74
2023/07/13 15:19:33;;;;;;;29.15;7.72;;;31.10;99.90;;;;;;5093092;28;20056;-75
2023/07/13 15:22:37;;;;;;;26.05;7.60;;;31.10;99.90;;;;;;5092758;28;20051;-73
2023/07/13 15:25:43;;;;;;;23.70;7.63;;;31.30;99.90;;;;;;5093455;28;20039;-75
2023/07/13 15:28:48;;;;;;;27.45;8.45;;;31.30;99.90;;;;;;5093263;28;20046;-75
2023/07/13 15:31:52;;;;;;;24.02;7.57;;;31.10;99.90;;;;;;5092056;28;20043;-74
2023/07/13 15:34:57;;;;;;;25.00;7.35;;;31.50;99.90;;;;;;5091562;28;20051;-73
2023/07/13 15:38:02;;;;;;;28.02;7.97;;;31.60;99.90;;;;;;5091826;28;20047;-74
2023/07/13 15:41:17;;;;;;;26.83;7.68;;;32.00;99.90;;;;;;5092043;28;20047;-74
2023/07/13 15:44:29;;;;;;;23.95;6.95;;;31.90;99.90;;;;;;5097322;28;20501;-75
2023/07/13 15:47:33;;;;;;;32.80;7.00;;;32.00;99.90;;;;;;5092194;28;20091;-77
2023/07/13 15:50:44;;;;;;;32.83;7.43;;;31.70;99.90;;;;;;5092114;28;20122;-75
2023/07/13 15:53:49;;;;;;;29.35;8.57;;;31.60;99.90;;;;;;5092597;28;20062;-75
2023/07/13 15:56:55;;;;;;;29.33;7.63;;;31.50;99.90;;;;;;5092248;28;20059;-75
2023/07/13 15:59:59;;;;;;;23.52;7.45;;;31.40;99.90;;;;;;5091718;28;20145;-74
2023/07/13 16:03:04;;;;;;;24.15;8.27;;;30.90;99.90;;;;;;5091158;28;20067;-72
2023/07/13 16:06:16;;;;;;;23.95;7.15;;;30.80;99.90;;;;;;5091574;28;20047;-75
2023/07/13 16:09:23;;;;;;;27.35;7.20;;;31.20;99.90;;;;;;5091697;28;20046;-74
2023/07/13 16:12:27;;;;;;;24.75;7.38;;;31.10;99.90;;;;;;5092281;28;20386;-74
2023/07/13 16:15:31;;;;;;;24.15;7.38;;;30.90;99.90;;;;;;5091225;28;20046;-73
2023/07/13 16:18:35;;;;;;;23.35;7.20;;;31.10;99.90;;;;;;5091214;28;20039;-73
2023/07/13 16:21:46;;;;;;;23.05;6.72;;;31.20;99.90;;;;;;5091114;28;20114;-77
2023/07/13 16:24:54;;;;;;;;;;;31.50;99.90;;;;;;5091184;28;20043;-74
2023/07/13 16:28:01;;;;;;;29.33;7.57;;;31.90;99.90;;;;;;5090906;28;19908;-73
2023/07/13 16:33:44;;;;;;;26.50;7.43;;;31.70;99.90;;;;;;5107455;27;20918;-52
2023/07/13 16:36:48;;;;;;;25.73;7.45;;;31.70;99.90;;;;;;5107523;28;20036;-53
2023/07/13 16:39:58;;;;;;;21.40;7.28;;;31.60;99.90;;;;;;5107701;28;20414;-53
2023/07/13 16:43:04;;;;;;;19.00;7.07;;;31.60;99.90;;;;;;5107599;28;20054;-51
2023/07/13 16:46:14;;;;;;;24.20;6.95;;;31.30;99.90;;;;;;5107183;28;20043;-52
2023/07/13 16:49:30;;;;;;;29.23;7.50;;;31.20;99.90;;;;;;5107279;28;20047;-53
2023/07/13 16:52:34;;;;;;;20.05;7.82;;;30.90;99.90;;;;;;5107162;28;20039;-52
2023/07/13 16:55:39;;;;;;;30.50;7.90;;;30.60;99.90;;;;;;5106942;28;20047;-52
2023/07/13 16:58:44;;;;;;;23.90;7.22;;;30.70;99.90;;;;;;5107094;28;20039;-51
2023/07/13 17:01:48;;;;;;;18.80;7.40;;;30.80;99.90;;;;;;5106986;28;20050;-52
2023/07/13 17:04:52;;;;;;;22.35;7.10;;;30.80;99.90;;;;;;5107313;28;20043;-55
2023/07/13 17:07:58;;;;;;;28.23;7.47;;;30.60;99.90;;;;;;5106739;28;20039;-55
2023/07/13 17:11:02;;;;;;;26.13;7.40;;;30.30;99.90;;;;;;5107094;28;20043;-54
2023/07/13 17:14:27;;;;;;;27.42;7.13;;;30.30;99.90;;;;;;5107027;28;20047;-52
2023/07/13 17:17:42;;;;;;;26.10;7.45;;;30.30;99.90;;;;;;5107096;28;20039;-53
2023/07/13 17:20:47;;;;;;;25.83;6.93;;;30.40;99.90;;;;;;5106961;28;20042;-55
2023/07/13 17:23:52;;;;;;;25.48;7.97;;;30.40;99.90;;;;;;5107167;28;20054;-54
2023/07/13 17:26:57;;;;;;;21.63;6.85;;;30.50;99.90;;;;;;5106396;28;20047;-52
2023/07/13 17:30:01;;;;;;;26.35;7.38;;;30.40;99.90;;;;;;5106762;28;20043;-52
2023/07/13 17:33:29;;;;;;;20.02;6.60;;;30.30;99.90;;;;;;5106153;28;20054;-52
2023/07/13 17:36:33;;;;;;;21.23;7.28;;;30.20;99.90;;;;;;5106602;28;20393;-52
2023/07/13 17:39:38;;;;;;;20.70;7.40;;;30.10;99.90;;;;;;5106834;28;20433;-52
2023/07/13 17:42:42;;;;;;;26.27;7.65;;;29.90;99.90;;;;;;5106334;28;20051;-52
2023/07/13 17:45:46;;;;;;;26.13;7.18;;;29.90;99.90;;;;;;5092795;28;20047;-52
2023/07/13 17:48:51;;;;;;;23.70;7.60;;;30.00;99.90;;;;;;5092875;28;20047;-53
2023/07/13 17:51:56;;;;;;;23.00;8.13;;;29.80;99.90;;;;;;5092260;28;20043;-54
2023/07/13 17:55:02;;;;;;;16.70;6.57;;;29.80;99.90;;;;;;5092759;28;20043;-52
2023/07/13 17:58:06;;;;;;;25.67;7.72;;;29.70;99.90;;;;;;5092428;28;20410;-52
2023/07/13 18:01:15;;;;;;;20.73;7.32;;;29.60;99.90;;;;;;5092566;28;20055;-53
2023/07/13 18:04:22;;;;;;;18.27;6.95;;;29.40;99.90;;;;;;5092508;28;20044;-52
2023/07/13 18:07:28;;;;;;;16.27;6.80;;;29.30;99.90;;;;;;5092205;28;20047;-53
2023/07/13 18:10:33;;;;;;;18.02;6.68;;;29.20;99.90;;;;;;5092191;28;20043;-53
2023/07/13 18:13:39;;;;;;;24.60;7.45;;;29.10;99.90;;;;;;5091837;28;20047;-55
2023/07/13 18:16:53;;;;;;;23.58;7.28;;;29.10;99.90;;;;;;5092324;28;20047;-55
2023/07/13 18:19:57;;;;;;;19.85;7.10;;;29.00;99.90;;;;;;5092376;28;20122;-54
2023/07/13 18:23:03;;;;;;;16.10;7.00;;;28.90;99.90;;;;;;5091748;28;20043;-55
2023/07/13 18:26:10;;;;;;;16.90;6.82;;;28.80;99.90;;;;;;5091983;28;20410;-52
2023/07/13 18:29:14;;;;;;;23.10;8.25;;;28.80;99.90;;;;;;5092092;28;20533;-53
2023/07/13 18:32:20;;;;;;;22.63;6.95;;;28.70;99.90;;;;;;5091519;28;20051;-55
2023/07/13 18:35:38;;;;;;;18.88;8.00;;;28.60;99.90;;;;;;5091686;28;20063;-54
2023/07/13 18:38:44;;;;;;;25.00;7.70;;;28.50;99.90;;;;;;5091676;28;20485;-52
2023/07/13 18:41:48;;;;;;;30.67;8.80;;;28.40;99.90;;;;;;5091640;28;20035;-54
2023/07/13 18:44:52;;;;;;;22.58;7.55;;;28.30;99.90;;;;;;5091934;28;20050;-55
2023/07/13 18:47:59;;;;;;;25.30;7.65;;;28.20;99.90;;;;;;5091470;28;20047;-55
2023/07/13 18:51:03;;;;;;;17.92;7.00;;;28.10;99.90;;;;;;5091798;28;20107;-55
2023/07/13 18:54:13;;;;;;;25.10;8.38;;;28.00;99.90;;;;;;5091855;28;20406;-52
2023/07/13 18:57:18;;;;;;;23.58;8.13;;;27.90;99.90;;;;;;5090955;28;20043;-53
2023/07/13 19:00:26;;;;;;;25.33;8.15;;;27.80;99.90;;;;;;5091427;28;20517;-52
2023/07/13 19:03:34;;;;;;;29.23;7.88;;;27.70;99.90;;;;;;5091315;28;20145;-54
2023/07/13 19:06:38;;;;;;;27.48;8.55;;;27.60;99.90;;;;;;5091474;28;20043;-53
2023/07/13 19:09:44;;;;;;;30.48;9.38;;;27.50;99.90;;;;;;5091212;28;20059;-52
2023/07/13 19:12:56;;;;;;;27.85;8.45;;;27.50;99.90;;;;;;5090791;28;20509;-52
2023/07/13 19:15:59;;;;;;;;;;;27.30;99.90;;;;;;5091646;28;20039;-52
2023/07/13 19:19:15;;;;;;;27.52;8.85;;;27.30;99.90;;;;;;5090939;28;19930;-55
2023/07/13 19:22:20;;;;;;;26.10;8.43;;;27.30;99.90;;;;;;5091230;28;20066;-52
2023/07/13 19:25:24;;;;;;;28.77;8.98;;;27.20;99.90;;;;;;5091110;28;20046;-51
2023/07/13 19:28:40;;;;;;;34.53;10.02;;;27.20;99.90;;;;;;5091064;28;20046;-52
2023/07/13 19:31:45;;;;;;;33.40;9.88;;;27.20;99.90;;;;;;5091054;28;20508;-55
2023/07/13 19:34:52;;;;;;;32.13;9.00;;;27.20;99.90;;;;;;5091043;28;20059;-52
2023/07/13 19:37:56;;;;;;;33.17;8.93;;;27.10;99.90;;;;;;5090766;28;20047;-51
2023/07/13 19:41:00;;;;;;;30.63;9.52;;;27.10;99.90;;;;;;5090578;28;20520;-52
2023/07/13 19:44:11;;;;;;;30.85;9.77;;;27.00;99.90;;;;;;5090266;28;20043;-52
2023/07/13 19:47:17;;;;;;;33.55;9.30;;;27.00;99.90;;;;;;5090016;28;20043;-52
2023/07/13 19:50:21;;;;;;;27.40;10.23;;;27.00;99.90;;;;;;5090012;28;20051;-52
2023/07/13 19:53:27;;;;;;;30.33;9.63;;;27.00;99.90;;;;;;5089632;28;20051;-51
2023/07/13 19:56:32;;;;;;;26.92;8.60;;;27.00;99.90;;;;;;5089849;28;20107;-50
2023/07/13 19:59:36;;;;;;;32.45;11.20;;;27.00;99.90;;;;;;5089539;28;20410;-52
2023/07/13 20:02:41;;;;;;;32.08;9.80;;;27.00;99.90;;;;;;5089673;28;20281;-52
2023/07/13 20:05:46;;;;;;;30.92;9.65;;;26.90;99.90;;;;;;5089587;28;20050;-52
2023/07/13 20:08:50;;;;;;;28.23;9.38;;;26.90;99.90;;;;;;5089467;28;20510;-51
2023/07/13 20:11:55;;;;;;;30.77;9.90;;;26.80;99.90;;;;;;5089623;28;20047;-52
2023/07/13 20:14:59;;;;;;;35.17;10.65;;;26.80;99.90;;;;;;5089663;28;20536;-52
2023/07/13 20:18:05;;;;;;;28.15;11.00;;;26.70;99.90;;;;;;5089743;28;20046;-52
2023/07/13 20:21:13;;;;;;;37.08;10.90;;;26.70;99.90;;;;;;5089657;28;20059;-53
2023/07/13 20:24:19;;;;;;;27.73;9.93;;;26.60;99.90;;;;;;5089251;28;20517;-53
2023/07/13 20:27:23;;;;;;;33.08;9.45;;;26.60;99.90;;;;;;5089523;28;20043;-52
2023/07/13 20:30:30;;;;;;;33.22;9.75;;;26.60;99.90;;;;;;5089263;28;20054;-51
2023/07/13 20:33:35;;;;;;;28.17;10.18;;;26.50;99.90;;;;;;5088919;28;20517;-52
2023/07/13 20:36:40;;;;;;;24.20;9.82;;;26.50;99.90;;;;;;5088434;28;20055;-52
2023/07/13 20:39:44;;;;;;;30.67;9.93;;;26.40;99.90;;;;;;5089107;28;20114;-52
2023/07/13 20:42:48;;;;;;;42.53;10.30;;;26.40;99.90;;;;;;5088258;28;20047;-52
2023/07/13 20:45:59;;;;;;;33.67;10.20;;;26.30;99.90;;;;;;5089757;28;20038;-52
2023/07/13 20:49:03;;;;;;;27.35;9.48;;;26.20;99.90;;;;;;5089000;28;20409;-52
2023/07/13 20:52:12;;;;;;;29.08;9.10;;;26.20;99.90;;;;;;5089186;28;20054;-53
2023/07/13 20:55:20;;;;;;;31.70;8.88;;;26.10;99.90;;;;;;5089235;28;20398;-54
2023/07/13 20:58:24;;;;;;;31.58;9.98;;;26.10;99.90;;;;;;5089043;28;20047;-52
2023/07/13 21:01:37;;;;;;;36.38;9.77;;;26.00;99.90;;;;;;5088078;28;20035;-54
2023/07/13 21:04:44;;;;;;;27.23;9.80;;;26.00;99.90;;;;;;5089366;28;20035;-55
2023/07/13 21:07:49;;;;;;;24.73;9.20;;;26.00;99.90;;;;;;5089398;28;20043;-51
2023/07/13 21:10:54;;;;;;;37.15;10.82;;;25.90;99.90;;;;;;5088733;28;20402;-52
2023/07/13 21:13:58;;;;;;;25.90;10.15;;;25.80;99.90;;;;;;5088681;28;20051;-52
2023/07/13 21:17:09;;;;;;;29.40;10.02;;;25.70;99.90;;;;;;5089046;28;20402;-54
2023/07/13 21:20:20;;;;;;;35.58;10.27;;;25.70;99.90;;;;;;5090986;28;20449;-56
2023/07/13 21:23:33;;;;;;;33.83;10.57;;;25.60;99.90;;;;;;5092670;28;20046;-53
2023/07/13 21:26:37;;;;;;;34.10;10.85;;;25.40;99.90;;;;;;5092928;28;20079;-54
2023/07/13 21:29:41;;;;;;;25.60;10.52;;;25.40;99.90;;;;;;5092857;28;20230;-56
2023/07/13 21:32:49;;;;;;;34.40;10.38;;;25.40;99.90;;;;;;5092081;28;20055;-53
2023/07/13 21:35:57;;;;;;;34.35;11.27;;;25.40;99.90;;;;;;5092749;28;20493;-51
2023/07/13 21:39:04;;;;;;;32.88;10.10;;;25.40;99.90;;;;;;5092319;28;20051;-51
2023/07/13 21:42:12;;;;;;;29.70;9.82;;;25.40;99.90;;;;;;5092495;28;20047;-51
2023/07/13 21:45:27;;;;;;;28.90;10.57;;;25.30;99.90;;;;;;5092603;28;20039;-55
2023/07/13 21:48:32;;;;;;;28.42;10.30;;;25.30;99.90;;;;;;5092924;28;20047;-53
2023/07/13 21:51:36;;;;;;;34.78;10.75;;;25.10;99.90;;;;;;5091981;28;20047;-52
2023/07/13 21:54:40;;;;;;;35.47;11.10;;;25.10;99.90;;;;;;5092602;28;20410;-53
2023/07/13 21:57:50;;;;;;;30.73;10.63;;;25.10;99.90;;;;;;5092349;28;20513;-52